CheckWX is a tool to help pilots better visualize weather data.  It is not intended as a substitute for an official pre-flight weather briefing.

02:36:36 UTC

KMIA METAR
Miami International Airport
Miami, Florida, USA
Current

44 mins ago

KMIA 230153Z 14004KT 10SM CLR 19/08 A3010 RMK AO2 SLP194 T01940083 $
Observed
Mar-23 @ 01:53 UTC
Wind
  • 140° at 4 KTS
Visibility
10 SM
Flight Rules
VFR
Cloud Levels
  • Clear skies
Temperature
19°C / 66°F
Dewpoint
C / 46°F
Humidity
49%
Altimeter
30.1" Hg
Pressure
1019.4 hPa
Previous

2 hours ago

KMIA 230053Z 06004KT 10SM FEW060 21/05 A3009 RMK AO2 SLP188 T02060050 $
Observed
Mar-23 @ 00:53 UTC
Wind
  • 060° at 4 KTS
Visibility
10 SM
Flight Rules
VFR
Cloud Levels
  • Few at 6,000' AGL
Temperature
21°C / 70°F
Dewpoint
C / 41°F
Humidity
35%
Altimeter
30.09" Hg
Pressure
1018.8 hPa
Previous

3 hours ago

KMIA 222353Z 00000KT 10SM FEW055 21/05 A3007 RMK AO2 SLP183 T02110050 10239 20211 53008 $
Observed
Mar-22 @ 23:53 UTC
Visibility
10 SM
Flight Rules
VFR
Cloud Levels
  • Few at 5,500' AGL
Temperature
21°C / 70°F
Dewpoint
C / 41°F
Humidity
35%
Altimeter
30.07" Hg
Pressure
1018.3 hPa